createdAt,value
2022-12-15T00:01:48.283Z,90.34
2022-12-15T00:04:16.853Z,90.07
2022-12-15T00:06:45.031Z,89.96
2022-12-15T00:09:14.616Z,89.97
2022-12-15T00:11:43.637Z,90.19
2022-12-15T00:14:11.812Z,89.91
2022-12-15T00:16:39.985Z,89.94
2022-12-15T00:19:08.269Z,90.10
2022-12-15T00:21:36.243Z,90.05
2022-12-15T00:24:04.440Z,90.21
2022-12-15T00:26:32.504Z,90.19
2022-12-15T00:29:00.577Z,90.28
2022-12-15T00:31:28.817Z,90.32
2022-12-15T00:33:57.861Z,90.34
2022-12-15T00:36:25.909Z,90.13
2022-12-15T00:38:56.157Z,90.27
2022-12-15T00:41:27.679Z,90.44
2022-12-15T00:43:55.709Z,90.53
2022-12-15T00:46:23.862Z,90.70
2022-12-15T00:48:52.910Z,91.06
2022-12-15T00:51:21.221Z,91.06
2022-12-15T00:53:49.607Z,90.88
2022-12-15T00:56:18.128Z,90.70
2022-12-15T00:58:46.381Z,90.92
2022-12-15T01:01:14.249Z,91.02
2022-12-15T01:03:42.523Z,91.43
2022-12-15T01:06:13.238Z,91.32
2022-12-15T01:08:41.329Z,91.34
2022-12-15T01:11:09.422Z,91.32
2022-12-15T01:13:37.632Z,91.07
2022-12-15T01:16:13.209Z,90.94
2022-12-15T01:18:41.257Z,90.96
2022-12-15T01:21:10.973Z,90.90
2022-12-15T01:23:41.084Z,90.95
2022-12-15T01:26:09.180Z,90.96
2022-12-15T01:28:37.357Z,90.88
2022-12-15T01:31:12.738Z,90.84
2022-12-15T01:33:41.065Z,91.05
2022-12-15T01:36:09.869Z,91.10
2022-12-15T01:38:38.030Z,91.22
2022-12-15T01:41:10.415Z,91.43
2022-12-15T01:43:40.570Z,91.50
2022-12-15T01:46:17.137Z,91.66
2022-12-15T01:49:14.485Z,91.85
2022-12-15T01:51:50.733Z,91.85
2022-12-15T01:54:29.279Z,91.88
2022-12-15T01:57:03.342Z,92.07
2022-12-15T01:59:36.186Z,92.06
2022-12-15T02:02:04.846Z,92.02
2022-12-15T02:04:34.211Z,92.05
2022-12-15T02:07:02.239Z,92.05
2022-12-15T02:09:30.836Z,92.10
2022-12-15T02:12:26.236Z,92.17
2022-12-15T02:15:08.898Z,92.30
2022-12-15T02:17:55.038Z,92.33
2022-12-15T02:20:40.352Z,92.27
2022-12-15T02:23:17.382Z,92.35
2022-12-15T02:25:54.881Z,92.24
2022-12-15T02:28:29.120Z,92.18
2022-12-15T02:31:15.505Z,92.15
2022-12-15T02:34:09.116Z,92.21
2022-12-15T02:36:41.380Z,92.28
2022-12-15T02:39:12.333Z,92.18
2022-12-15T02:41:44.277Z,92.14
2022-12-15T02:44:18.466Z,92.19
2022-12-15T02:47:08.588Z,92.09
2022-12-15T02:49:55.429Z,92.08
2022-12-15T02:52:55.945Z,92.19
2022-12-15T02:55:46.316Z,92.25
2022-12-15T02:58:23.608Z,92.38
2022-12-15T03:01:00.593Z,92.39
2022-12-15T03:03:31.885Z,92.47
2022-12-15T03:06:00.931Z,92.60
2022-12-15T03:08:29.129Z,92.54
2022-12-15T03:10:58.569Z,92.59
2022-12-15T03:13:26.804Z,92.70
2022-12-15T03:15:55.970Z,92.61
2022-12-15T03:18:24.470Z,92.49
2022-12-15T03:20:52.694Z,92.46
2022-12-15T03:23:20.907Z,92.79
2022-12-15T03:25:49.635Z,92.75
2022-12-15T03:28:18.509Z,92.80
2022-12-15T03:30:50.386Z,92.77
2022-12-15T03:33:19.107Z,92.78
2022-12-15T03:35:47.236Z,92.62
2022-12-15T03:38:15.361Z,92.61
2022-12-15T03:40:44.181Z,92.26
2022-12-15T03:43:12.555Z,91.84
2022-12-15T03:45:40.698Z,91.54
2022-12-15T03:48:09.122Z,91.47
2022-12-15T03:50:37.194Z,91.40
2022-12-15T03:53:05.801Z,90.23
2022-12-15T03:55:34.175Z,89.36
2022-12-15T03:58:02.260Z,89.27
2022-12-15T04:00:30.439Z,89.55
2022-12-15T04:02:59.494Z,89.35
2022-12-15T04:05:33.050Z,89.42
2022-12-15T04:08:02.432Z,89.45
2022-12-15T04:10:34.765Z,89.86
2022-12-15T04:13:06.093Z,90.06
2022-12-15T04:15:35.459Z,89.52
2022-12-15T04:18:06.105Z,89.85
2022-12-15T04:20:34.741Z,90.17
2022-12-15T04:23:02.858Z,90.42
2022-12-15T04:25:31.161Z,90.58
2022-12-15T04:28:01.742Z,90.32
2022-12-15T04:30:31.895Z,89.34
2022-12-15T04:33:00.613Z,89.60
2022-12-15T04:35:29.186Z,89.16
2022-12-15T04:37:57.750Z,87.98
2022-12-15T04:40:25.726Z,87.14
2022-12-15T04:42:53.827Z,86.22
2022-12-15T04:45:24.801Z,85.19
2022-12-15T04:47:52.798Z,83.21
2022-12-15T04:50:20.836Z,81.55
2022-12-15T04:52:48.921Z,80.81
2022-12-15T04:55:17.169Z,81.49
2022-12-15T04:57:45.187Z,80.73
2022-12-15T05:00:13.848Z,80.81
2022-12-15T05:02:41.926Z,80.35
2022-12-15T05:05:10.241Z,80.13
2022-12-15T05:07:38.351Z,79.16
2022-12-15T05:10:12.739Z,79.28
2022-12-15T05:12:44.240Z,76.63
2022-12-15T05:15:12.774Z,75.43
2022-12-15T05:17:41.907Z,78.67
2022-12-15T05:20:10.344Z,78.77
2022-12-15T05:22:38.386Z,80.55
2022-12-15T05:25:06.857Z,82.22
2022-12-15T05:27:34.993Z,81.57
2022-12-15T05:30:03.247Z,81.45
2022-12-15T05:32:32.689Z,80.71
2022-12-15T05:35:01.046Z,81.52
2022-12-15T05:37:29.443Z,80.46
2022-12-15T05:39:57.475Z,80.35
2022-12-15T05:42:25.546Z,81.50
2022-12-15T05:44:53.544Z,81.39
2022-12-15T05:47:21.934Z,82.24
2022-12-15T05:49:50.143Z,80.89
2022-12-15T05:52:18.330Z,80.50
2022-12-15T05:54:46.565Z,80.12
2022-12-15T05:57:14.680Z,80.48
2022-12-15T05:59:42.960Z,80.31
2022-12-15T06:02:11.231Z,81.01
2022-12-15T06:04:39.862Z,80.23
2022-12-15T06:07:07.947Z,80.09
2022-12-15T06:09:36.143Z,79.79
2022-12-15T06:12:04.448Z,79.69
2022-12-15T06:14:32.604Z,79.63
2022-12-15T06:17:00.719Z,79.78
2022-12-15T06:19:28.949Z,80.83
2022-12-15T06:21:57.127Z,80.73
2022-12-15T06:24:25.305Z,79.94
2022-12-15T06:26:53.491Z,80.40
2022-12-15T06:29:21.770Z,80.96
2022-12-15T06:31:49.873Z,80.56
2022-12-15T06:34:18.749Z,81.13
2022-12-15T06:36:47.145Z,80.77
2022-12-15T06:39:16.600Z,80.31
2022-12-15T06:41:44.900Z,80.43
2022-12-15T06:44:15.292Z,80.47
2022-12-15T06:46:44.162Z,81.29
2022-12-15T06:49:12.693Z,81.01
2022-12-15T06:51:40.879Z,81.52
2022-12-15T06:54:09.864Z,82.09
2022-12-15T06:56:39.366Z,82.95
2022-12-15T06:59:07.916Z,83.12
2022-12-15T07:01:36.143Z,83.57
2022-12-15T07:04:04.850Z,83.64
2022-12-15T07:06:37.049Z,83.28
2022-12-15T07:09:08.120Z,83.06
2022-12-15T07:11:36.389Z,83.00
2022-12-15T07:14:04.926Z,81.38
2022-12-15T07:16:33.736Z,81.37
2022-12-15T07:19:02.173Z,81.52
2022-12-15T07:21:30.297Z,82.19
2022-12-15T07:23:59.410Z,81.37
2022-12-15T07:26:28.855Z,80.60
2022-12-15T07:28:56.858Z,81.66
2022-12-15T07:31:25.427Z,82.00
2022-12-15T07:33:53.514Z,82.37
2022-12-15T07:36:21.873Z,82.55
2022-12-15T07:38:51.585Z,82.42
2022-12-15T07:41:20.572Z,82.51
2022-12-15T07:43:48.933Z,82.29
2022-12-15T07:46:18.428Z,82.27
2022-12-15T07:48:50.966Z,81.90
2022-12-15T07:51:21.483Z,81.30
2022-12-15T07:53:50.739Z,78.77
2022-12-15T07:56:20.365Z,76.78
2022-12-15T07:58:49.414Z,71.06
2022-12-15T08:01:18.945Z,67.24
2022-12-15T08:03:48.957Z,65.31
2022-12-15T08:06:17.207Z,64.73
2022-12-15T08:08:49.973Z,64.65
2022-12-15T08:11:22.084Z,64.45
2022-12-15T08:14:10.481Z,64.82
2022-12-15T08:16:39.492Z,65.92
2022-12-15T08:19:13.595Z,68.18
2022-12-15T08:21:43.267Z,67.35
2022-12-15T08:24:12.099Z,66.43
2022-12-15T08:26:42.008Z,68.15
2022-12-15T08:32:02.868Z,71.30
2022-12-15T08:34:31.296Z,71.48
2022-12-15T08:36:59.406Z,73.11
2022-12-15T08:39:27.573Z,73.45
2022-12-15T08:41:56.678Z,74.69
2022-12-15T08:44:24.725Z,72.71
2022-12-15T08:46:52.780Z,72.91
2022-12-15T08:49:22.377Z,74.18
2022-12-15T08:51:50.856Z,73.95
2022-12-15T08:54:20.043Z,74.20
2022-12-15T08:56:48.995Z,74.73
2022-12-15T08:59:17.378Z,76.08
2022-12-15T09:01:45.582Z,77.25
2022-12-15T09:04:13.994Z,76.90
2022-12-15T09:06:42.907Z,78.06
2022-12-15T09:09:13.746Z,76.92
2022-12-15T09:11:41.846Z,75.32
2022-12-15T09:14:10.037Z,74.34
2022-12-15T09:16:38.268Z,76.02
2022-12-15T09:19:06.860Z,76.14
2022-12-15T09:21:35.348Z,76.62
2022-12-15T09:24:04.542Z,75.22
2022-12-15T09:26:34.643Z,74.42
2022-12-15T09:29:02.811Z,74.47
2022-12-15T09:31:33.325Z,75.05
2022-12-15T09:34:02.654Z,73.96
2022-12-15T09:36:32.331Z,73.97
2022-12-15T09:39:01.148Z,74.40
2022-12-15T09:41:34.840Z,75.53
2022-12-15T09:44:17.614Z,76.09
2022-12-15T09:46:51.380Z,75.46
2022-12-15T09:49:49.904Z,76.22
2022-12-15T09:52:24.264Z,74.75
2022-12-15T09:54:53.746Z,75.23
2022-12-15T09:57:37.077Z,76.18
2022-12-15T10:00:05.205Z,74.37
2022-12-15T10:02:51.599Z,73.87
2022-12-15T10:06:15.465Z,74.35
2022-12-15T10:08:52.898Z,73.34
2022-12-15T10:11:23.755Z,73.79
2022-12-15T10:14:03.013Z,72.34
2022-12-15T10:16:47.952Z,71.62
2022-12-15T10:19:27.035Z,70.44
2022-12-15T10:21:57.524Z,70.46
2022-12-15T10:25:08.658Z,70.30
2022-12-15T10:27:30.345Z,70.07
2022-12-15T10:30:08.888Z,70.19
2022-12-15T10:32:51.278Z,69.63
2022-12-15T10:35:26.318Z,69.15
2022-12-15T10:38:04.578Z,69.45
2022-12-15T10:40:50.525Z,68.75
2022-12-15T10:43:40.311Z,68.79
2022-12-15T10:46:11.697Z,68.79
2022-12-15T10:48:41.429Z,69.31
2022-12-15T10:51:33.178Z,68.90
2022-12-15T10:54:12.490Z,68.44
2022-12-15T10:56:54.721Z,68.29
2022-12-15T10:59:29.701Z,67.99
2022-12-15T11:02:25.541Z,67.21
2022-12-15T11:04:57.600Z,66.92
2022-12-15T11:07:35.171Z,65.20
2022-12-15T11:10:16.448Z,65.34
2022-12-15T11:12:58.362Z,65.39
2022-12-15T11:15:55.803Z,65.74
2022-12-15T11:18:48.866Z,64.78
2022-12-15T11:21:45.108Z,64.96
2022-12-15T11:24:20.941Z,62.89
2022-12-15T11:26:49.237Z,62.21
2022-12-15T11:29:23.613Z,60.94
2022-12-15T11:31:53.208Z,60.29
2022-12-15T11:34:25.602Z,59.27
2022-12-15T11:37:07.926Z,58.40
2022-12-15T11:39:56.013Z,58.26
2022-12-15T11:42:45.894Z,59.24
2022-12-15T11:45:48.259Z,60.88
2022-12-15T11:48:26.127Z,62.11
2022-12-15T11:51:03.086Z,63.23
2022-12-15T11:54:15.649Z,63.20
2022-12-15T11:56:53.134Z,62.94
2022-12-15T11:59:20.956Z,63.33
2022-12-15T12:02:03.467Z,63.91
2022-12-15T12:05:07.191Z,65.30
2022-12-15T12:07:45.591Z,65.34
2022-12-15T12:10:29.283Z,65.63
2022-12-15T12:13:04.803Z,64.54
2022-12-15T12:15:42.724Z,65.57
2022-12-15T12:18:42.701Z,66.27
2022-12-15T12:21:24.226Z,66.88
2022-12-15T12:24:00.686Z,66.88
2022-12-15T12:26:28.814Z,66.23
2022-12-15T12:29:06.663Z,66.03
2022-12-15T12:31:40.586Z,66.23
2022-12-15T12:34:22.729Z,66.43
2022-12-15T12:36:53.082Z,65.81
2022-12-15T12:39:24.826Z,66.00
2022-12-15T12:42:09.130Z,66.14
2022-12-15T12:44:38.913Z,65.87
2022-12-15T12:47:12.691Z,66.87
2022-12-15T12:49:50.785Z,65.65
2022-12-15T12:52:32.443Z,63.88
2022-12-15T12:55:09.565Z,63.44
2022-12-15T12:57:45.355Z,62.33
2022-12-15T13:00:32.577Z,61.31
2022-12-15T13:03:13.711Z,62.56
2022-12-15T13:05:43.632Z,62.53
2022-12-15T13:08:14.633Z,62.85
2022-12-15T13:10:47.925Z,61.89
2022-12-15T13:13:18.827Z,62.36
2022-12-15T13:15:51.375Z,62.77
2022-12-15T13:18:27.252Z,62.53
2022-12-15T13:20:57.377Z,63.52
2022-12-15T13:23:27.075Z,62.75
2022-12-15T13:25:59.039Z,63.54
2022-12-15T13:28:36.691Z,63.40
2022-12-15T13:31:17.019Z,63.69
2022-12-15T13:33:51.142Z,63.69
2022-12-15T13:36:37.841Z,63.35
2022-12-15T13:39:28.553Z,62.06
2022-12-15T13:44:55.084Z,61.90
2022-12-15T13:47:27.756Z,61.27
2022-12-15T13:50:03.577Z,60.82
2022-12-15T13:53:18.010Z,61.46
2022-12-15T13:55:53.060Z,61.11
2022-12-15T13:58:24.079Z,60.23
2022-12-15T14:00:57.395Z,61.37
2022-12-15T14:03:25.665Z,60.90
2022-12-15T14:05:56.627Z,61.90
2022-12-15T14:08:29.205Z,61.53
2022-12-15T14:11:00.167Z,62.63
2022-12-15T14:13:36.286Z,61.94
2022-12-15T14:16:14.772Z,62.67
2022-12-15T14:18:43.924Z,61.73
2022-12-15T14:21:23.039Z,61.76
2022-12-15T14:24:28.293Z,61.08
2022-12-15T14:26:41.558Z,60.89
2022-12-15T14:29:10.930Z,60.69
2022-12-15T14:31:40.590Z,60.44
2022-12-15T14:34:13.805Z,60.71
2022-12-15T14:36:43.945Z,60.30
2022-12-15T14:39:30.731Z,60.78
2022-12-15T14:41:59.845Z,60.33
2022-12-15T14:44:37.982Z,60.92
2022-12-15T14:47:21.349Z,59.11
2022-12-15T14:49:51.437Z,58.72
2022-12-15T14:52:28.287Z,58.50
2022-12-15T14:54:59.534Z,57.91
2022-12-15T14:57:46.658Z,57.49
2022-12-15T15:00:30.785Z,56.93
2022-12-15T15:03:24.184Z,56.15
2022-12-15T15:06:03.822Z,55.88
2022-12-15T15:08:37.000Z,55.11
2022-12-15T15:11:24.026Z,55.07
2022-12-15T15:14:19.007Z,53.33
2022-12-15T15:17:01.387Z,53.44
2022-12-15T15:19:30.695Z,53.58
2022-12-15T15:22:02.018Z,53.09
2022-12-15T15:24:34.838Z,52.96
2022-12-15T15:27:39.505Z,53.19
2022-12-15T15:30:27.911Z,53.45
2022-12-15T15:32:57.935Z,53.07
2022-12-15T15:35:31.545Z,53.01
2022-12-15T15:38:22.016Z,52.86
2022-12-15T15:40:55.778Z,54.54
2022-12-15T15:43:25.623Z,54.54
2022-12-15T15:46:06.649Z,53.59
2022-12-15T15:48:42.221Z,53.44
2022-12-15T15:51:10.840Z,53.64
2022-12-15T15:53:39.701Z,54.40
2022-12-15T15:56:12.083Z,57.07
2022-12-15T15:58:40.673Z,60.17
2022-12-15T16:01:13.133Z,61.67
2022-12-15T16:03:42.321Z,62.14
2022-12-15T16:06:21.932Z,62.40
2022-12-15T16:08:53.208Z,62.84
2022-12-15T16:11:27.919Z,63.08
2022-12-15T16:13:56.272Z,63.82
2022-12-15T16:16:30.231Z,63.90
2022-12-15T16:18:58.696Z,64.05
2022-12-15T16:21:27.960Z,64.12
2022-12-15T16:23:59.053Z,64.50
2022-12-15T16:26:32.538Z,64.77
2022-12-15T16:29:00.866Z,65.43
2022-12-15T16:31:38.953Z,66.28
2022-12-15T16:34:09.560Z,67.08
2022-12-15T16:36:38.442Z,66.99
2022-12-15T16:39:37.701Z,66.53
2022-12-15T16:42:09.782Z,66.07
2022-12-15T16:44:37.930Z,65.95
2022-12-15T16:47:05.958Z,65.91
2022-12-15T16:49:39.963Z,65.70
2022-12-15T16:52:19.590Z,65.80
2022-12-15T16:54:49.653Z,65.87
2022-12-15T16:57:17.999Z,66.21
2022-12-15T16:59:46.188Z,66.59
2022-12-15T17:02:29.866Z,67.23
2022-12-15T17:04:58.579Z,67.27
2022-12-15T17:07:27.949Z,67.42
2022-12-15T17:09:56.639Z,67.20
2022-12-15T17:12:25.195Z,67.09
2022-12-15T17:14:53.713Z,67.42
2022-12-15T17:17:22.026Z,67.55
2022-12-15T17:20:32.692Z,67.71
2022-12-15T17:22:38.677Z,67.52
2022-12-15T17:25:15.761Z,67.72
2022-12-15T17:27:44.637Z,68.42
2022-12-15T17:30:15.123Z,68.64
2022-12-15T17:32:43.903Z,68.61
2022-12-15T17:35:12.652Z,68.25
2022-12-15T17:37:41.350Z,68.99
2022-12-15T17:40:22.626Z,69.52
2022-12-15T17:42:51.080Z,70.09
2022-12-15T17:45:24.401Z,70.14
2022-12-15T17:47:52.604Z,70.53
2022-12-15T17:50:20.797Z,71.07
2022-12-15T17:52:49.026Z,72.06
2022-12-15T17:55:21.819Z,72.52
2022-12-15T17:57:51.266Z,72.42
2022-12-15T18:00:31.607Z,71.09
2022-12-15T18:03:00.887Z,71.25
2022-12-15T18:05:30.424Z,70.22
2022-12-15T18:08:02.806Z,70.30
2022-12-15T18:10:38.145Z,69.91
2022-12-15T18:13:19.602Z,70.04
2022-12-15T18:15:48.724Z,69.57
2022-12-15T18:18:18.583Z,69.14
2022-12-15T18:20:47.745Z,68.52
2022-12-15T18:23:20.162Z,68.66
2022-12-15T18:25:48.729Z,68.57
2022-12-15T18:28:19.541Z,68.33
2022-12-15T18:30:52.509Z,69.77
2022-12-15T18:33:22.645Z,69.18
2022-12-15T18:35:52.542Z,70.73
2022-12-15T18:38:24.813Z,70.48
2022-12-15T18:40:59.458Z,70.75
2022-12-15T18:43:35.353Z,70.39
2022-12-15T18:46:03.651Z,70.27
2022-12-15T18:48:33.904Z,70.53
2022-12-15T18:51:07.159Z,72.29
2022-12-15T18:53:36.846Z,71.85
2022-12-15T18:56:07.750Z,71.68
2022-12-15T18:58:38.406Z,73.04
2022-12-15T19:01:08.511Z,73.12
2022-12-15T19:03:37.786Z,73.11
2022-12-15T19:06:35.694Z,72.80
2022-12-15T19:09:24.199Z,72.02
2022-12-15T19:11:52.542Z,73.04
2022-12-15T19:14:20.864Z,73.50
2022-12-15T19:16:49.164Z,72.68
2022-12-15T19:19:17.608Z,73.20
2022-12-15T19:21:45.628Z,73.78
2022-12-15T19:24:16.763Z,73.11
2022-12-15T19:26:44.868Z,74.03
2022-12-15T19:29:21.582Z,73.24
2022-12-15T19:31:49.965Z,72.91
2022-12-15T19:34:18.172Z,73.37
2022-12-15T19:36:46.338Z,74.21
2022-12-15T19:39:24.608Z,74.43
2022-12-15T19:41:52.789Z,75.15
2022-12-15T19:44:22.929Z,75.64
2022-12-15T19:46:51.026Z,75.49
2022-12-15T19:49:19.238Z,74.83
2022-12-15T19:51:47.402Z,73.14
2022-12-15T19:54:21.896Z,72.49
2022-12-15T19:56:49.850Z,71.86
2022-12-15T19:59:26.707Z,71.57
2022-12-15T20:01:54.957Z,71.57
2022-12-15T20:04:24.508Z,70.78
2022-12-15T20:06:52.940Z,69.87
2022-12-15T20:09:21.139Z,69.28
2022-12-15T20:11:49.327Z,68.88
2022-12-15T20:14:17.986Z,69.32
2022-12-15T20:16:46.472Z,69.01
2022-12-15T20:19:14.557Z,68.90
2022-12-15T20:21:42.882Z,68.89
2022-12-15T20:24:19.486Z,69.55
2022-12-15T20:26:49.006Z,69.73
2022-12-15T20:29:28.462Z,71.03
2022-12-15T20:31:58.465Z,71.79
2022-12-15T20:34:26.601Z,71.28
2022-12-15T20:36:54.747Z,70.82
2022-12-15T20:39:31.155Z,71.70
2022-12-15T20:41:59.742Z,72.01
2022-12-15T20:44:27.870Z,72.47
2022-12-15T20:46:56.567Z,71.41
2022-12-15T20:49:24.734Z,72.00
2022-12-15T20:51:52.776Z,72.14
2022-12-15T20:54:22.349Z,72.05
2022-12-15T20:56:50.806Z,72.87
2022-12-15T20:59:19.299Z,73.28
2022-12-15T21:01:47.840Z,71.84
2022-12-15T21:04:30.481Z,72.32
2022-12-15T21:06:58.941Z,73.63
2022-12-15T21:09:27.058Z,73.12
2022-12-15T21:11:55.212Z,71.68
2022-12-15T21:14:24.296Z,71.15
2022-12-15T21:16:53.017Z,72.07
2022-12-15T21:19:22.345Z,71.47
2022-12-15T21:21:55.058Z,71.34
2022-12-15T21:24:26.109Z,72.91
2022-12-15T21:26:55.472Z,72.02
2022-12-15T21:29:26.089Z,72.50
2022-12-15T21:31:54.233Z,71.09
2022-12-15T21:34:23.271Z,71.58
2022-12-15T21:36:54.914Z,73.07
2022-12-15T21:39:35.252Z,73.82
2022-12-15T21:42:07.771Z,74.38
2022-12-15T21:44:36.338Z,73.08
2022-12-15T21:47:32.120Z,73.81
2022-12-15T21:50:00.445Z,73.32
2022-12-15T21:52:28.584Z,73.90
2022-12-15T21:54:56.796Z,71.48
2022-12-15T21:57:24.913Z,72.07
2022-12-15T21:59:53.044Z,73.38
2022-12-15T22:02:27.125Z,74.58
2022-12-15T22:04:55.509Z,72.72
2022-12-15T22:07:23.480Z,73.88
2022-12-15T22:09:51.914Z,74.62
2022-12-15T22:12:22.770Z,71.51
2022-12-15T22:14:50.922Z,70.58
2022-12-15T22:17:22.185Z,70.55
2022-12-15T22:19:50.295Z,72.02
2022-12-15T22:22:18.476Z,71.95
2022-12-15T22:24:46.678Z,70.57
2022-12-15T22:27:23.743Z,69.80
2022-12-15T22:29:52.390Z,69.29
2022-12-15T22:32:20.376Z,69.28
2022-12-15T22:34:48.422Z,68.80
2022-12-15T22:37:16.822Z,68.83
2022-12-15T22:39:44.904Z,69.00
2022-12-15T22:42:17.146Z,69.15
2022-12-15T22:44:45.764Z,66.98
2022-12-15T22:47:13.924Z,65.68
2022-12-15T22:49:42.726Z,64.76
2022-12-15T22:52:19.436Z,64.54
2022-12-15T22:54:48.027Z,64.34
2022-12-15T22:57:22.782Z,64.01
2022-12-15T23:00:10.984Z,63.81
2022-12-15T23:02:41.865Z,63.50
2022-12-15T23:05:13.217Z,63.96
2022-12-15T23:07:42.310Z,64.19
2022-12-15T23:10:12.268Z,64.53
2022-12-15T23:12:40.893Z,63.96
2022-12-15T23:15:09.849Z,63.53
2022-12-15T23:17:37.957Z,63.99
2022-12-15T23:20:06.644Z,63.48
2022-12-15T23:22:34.838Z,63.23
2022-12-15T23:25:02.954Z,63.09
2022-12-15T23:27:31.521Z,62.85
2022-12-15T23:29:59.961Z,62.78
2022-12-15T23:32:28.033Z,62.73
2022-12-15T23:34:56.262Z,62.77
2022-12-15T23:37:24.275Z,62.52
2022-12-15T23:39:52.212Z,62.85
2022-12-15T23:42:20.963Z,62.76
2022-12-15T23:44:48.983Z,63.41
2022-12-15T23:47:17.351Z,63.10
2022-12-15T23:49:45.689Z,63.37
2022-12-15T23:52:13.842Z,64.24
2022-12-15T23:54:42.064Z,65.60
2022-12-15T23:57:10.434Z,66.65
2022-12-15T23:59:38.798Z,67.89
